Wetterdaten: Woche 26.12.22 - 01.01.23 (KW52)
Datum Zeit Temp. A. Pool Temp. Temp. 5cm Feuchte A. Luftdruck Regen Wind Richtung Sonnenschein ET UV Solar Taupunkt Windchill Windben Empfang
26.12.2022 00:00 1,7 C 3,9 C -0,3 C 98 % 1018,3 hPa 0,0 l/m 2,0 km/h (1 Bft) SO 0,00 h 0,000 mm 0,0 UV-I 0 W/m 1,4 C 1,7 C 3,7 km/h (1 Bft) 96,35 %
26.12.2022 01:00 1,4 C 3,9 C -0,5 C 98 % 1018,8 hPa 0,0 l/m 1,0 km/h (0 Bft) S-SO 0,00 h 0,000 mm 0,0 UV-I 0 W/m 1,1 C 1,4 C 1,9 km/h (1 Bft) 97,79 %
26.12.2022 02:00 0,9 C 3,9 C -0,9 C 98 % 1019,1 hPa 0,0 l/m 0,6 km/h (0 Bft) S-SO 0,00 h 0,000 mm 0,0 UV-I 0 W/m 0,7 C 0,9 C 1,6 km/h (1 Bft) 97,08 %
26.12.2022 03:00 0,7 C 3,9 C -0,9 C 98 % 1019,2 hPa 0,0 l/m 1,1 km/h (1 Bft) O 0,00 h 0,000 mm 0,0 UV-I 0 W/m 0,4 C 0,7 C 1,9 km/h (1 Bft) 98,46 %
26.12.2022 04:00 0,1 C 3,9 C -0,9 C 98 % 1019,2 hPa 0,0 l/m 0,4 km/h (0 Bft) NO 0,00 h 0,000 mm 0,0 UV-I 0 W/m -0,1 C 0,1 C 1,1 km/h (1 Bft) 96,73 %
26.12.2022 05:00 -0,2 C 3,9 C -1,0 C 98 % 1019,2 hPa 0,0 l/m 2,3 km/h (1 Bft) W-NW 0,00 h 0,000 mm 0,0 UV-I 0 W/m -0,5 C -0,2 C 3,6 km/h (1 Bft) 97,34 %
26.12.2022 06:00 -0,3 C 3,9 C -1,1 C 98 % 1019,2 hPa 0,0 l/m 1,8 km/h (1 Bft) S-SW 0,00 h 0,000 mm 0,0 UV-I 0 W/m -0,6 C -0,3 C 3,3 km/h (1 Bft) 98,70 %
26.12.2022 07:00 -0,4 C 3,9 C -1,5 C 98 % 1019,5 hPa 0,0 l/m 1,5 km/h (1 Bft) S-SW 0,00 h 0,000 mm 0,0 UV-I 0 W/m -0,7 C -0,4 C 2,7 km/h (1 Bft) 96,62 %
26.12.2022 08:00 -0,4 C 3,9 C -1,3 C 98 % 1019,9 hPa 0,0 l/m 4,1 km/h (1 Bft) S 0,00 h 0,000 mm 0,0 UV-I 15 W/m -0,7 C -0,4 C 5,8 km/h (2 Bft) 96,24 %
26.12.2022 09:00 0,4 C 3,9 C -0,3 C 98 % 1020,2 hPa 0,2 l/m 1,3 km/h (1 Bft) S 0,27 h 0,000 mm 0,0 UV-I 91 W/m 0,2 C 0,4 C 2,5 km/h (1 Bft) 96,78 %
26.12.2022 10:00 2,1 C 3,9 C 1,4 C 98 % 1020,2 hPa 0,0 l/m 0,6 km/h (0 Bft) NO 0,52 h 0,025 mm 0,0 UV-I 137 W/m 1,8 C 2,1 C 1,5 km/h (1 Bft) 98,71 %
26.12.2022 11:00 3,8 C 3,9 C 4,3 C 98 % 1019,8 hPa 0,0 l/m 2,1 km/h (1 Bft) O-NO 0,83 h 0,051 mm 0,5 UV-I 200 W/m 3,5 C 3,8 C 3,7 km/h (1 Bft) 97,70 %
26.12.2022 12:00 5,1 C 3,9 C 6,1 C 98 % 1019,2 hPa 0,0 l/m 3,0 km/h (1 Bft) O-NO 0,13 h 0,076 mm 0,4 UV-I 131 W/m 4,8 C 5,1 C 4,6 km/h (1 Bft) 96,15 %
26.12.2022 13:00 5,2 C 3,9 C 6,5 C 98 % 1018,8 hPa 0,0 l/m 4,4 km/h (1 Bft) NO 0,40 h 0,051 mm 0,3 UV-I 161 W/m 4,9 C 5,2 C 6,0 km/h (2 Bft) 96,57 %
26.12.2022 14:00 5,1 C 3,9 C 5,5 C 97 % 1018,6 hPa 0,0 l/m 3,0 km/h (1 Bft) NO 0,00 h 0,076 mm 0,0 UV-I 44 W/m 4,7 C 5,1 C 4,2 km/h (1 Bft) 95,32 %
26.12.2022 15:00 4,7 C 3,9 C 4,6 C 97 % 1020,1 hPa 0,0 l/m 5,4 km/h (1 Bft) W-NW 0,00 h 0,026 mm 0,0 UV-I 13 W/m 4,2 C 4,4 C 8,4 km/h (2 Bft) 98,42 %
26.12.2022 16:00 7,4 C 3,9 C 6,2 C 92 % 1021,3 hPa 0,0 l/m 10,0 km/h (2 Bft) W 0,00 h 0,000 mm 0,0 UV-I 0 W/m 6,2 C 4,7 C 15,0 km/h (3 Bft) 97,33 %
26.12.2022 17:00 8,2 C 3,9 C 7,1 C 94 % 1021,6 hPa 0,6 l/m 11,0 km/h (2 Bft) W 0,00 h 0,000 mm 0,0 UV-I 0 W/m 7,2 C 5,1 C 16,6 km/h (3 Bft) 99,01 %
26.12.2022 18:00 8,3 C 3,9 C 7,2 C 94 % 1021,4 hPa 0,8 l/m 12,9 km/h (3 Bft) S-SW 0,00 h 0,000 mm 0,0 UV-I 0 W/m 7,4 C 4,2 C 19,6 km/h (3 Bft) 95,03 %
26.12.2022 19:00 8,3 C 3,9 C 7,2 C 94 % 1021,1 hPa 1,0 l/m 15,2 km/h (3 Bft) SW 0,00 h 0,000 mm 0,0 UV-I 0 W/m 7,4 C 3,1 C 23,5 km/h (4 Bft) 96,90 %
26.12.2022 20:00 8,3 C 3,9 C 7,1 C 93 % 1021,1 hPa 0,6 l/m 17,8 km/h (3 Bft) SW 0,00 h 0,000 mm 0,0 UV-I 0 W/m 7,2 C 2,0 C 28,4 km/h (4 Bft) 97,16 %
26.12.2022 21:00 8,3 C 3,9 C 6,7 C 91 % 1020,9 hPa 0,0 l/m 12,9 km/h (3 Bft) S-SW 0,00 h 0,025 mm 0,0 UV-I 0 W/m 6,9 C 4,1 C 21,1 km/h (4 Bft) 98,66 %
26.12.2022 22:00 8,8 C 3,9 C 6,7 C 86 % 1020,7 hPa 0,0 l/m 14,8 km/h (3 Bft) SW 0,00 h 0,026 mm 0,0 UV-I 0 W/m 6,6 C 4,0 C 23,0 km/h (4 Bft) 95,73 %
26.12.2022 23:00 9,3 C 3,9 C 7,0 C 82 % 1020,5 hPa 0,4 l/m 13,6 km/h (3 Bft) W-SW 0,00 h 0,025 mm 0,0 UV-I 0 W/m 6,5 C 5,0 C 21,1 km/h (4 Bft) 96,46 %
27.12.2022 00:00 8,6 C 3,9 C 6,7 C 88 % 1021,5 hPa 0,4 l/m 20,6 km/h (4 Bft) W 0,00 h 0,000 mm 0,0 UV-I 0 W/m 6,7 C 1,3 C 31,7 km/h (5 Bft) 98,53 %
27.12.2022 01:00 8,1 C 3,9 C 6,5 C 88 % 1022,3 hPa 0,0 l/m 15,8 km/h (3 Bft) W 0,00 h 0,025 mm 0,0 UV-I 0 W/m 6,3 C 2,6 C 23,5 km/h (4 Bft) 97,69 %
27.12.2022 02:00 7,4 C 3,9 C 6,1 C 91 % 1023,2 hPa 0,2 l/m 12,8 km/h (3 Bft) W-SW 0,00 h 0,026 mm 0,0 UV-I 0 W/m 6,1 C 3,2 C 19,3 km/h (3 Bft) 97,66 %
27.12.2022 03:00 7,4 C 3,9 C 5,7 C 88 % 1023,7 hPa 0,0 l/m 16,3 km/h (3 Bft) W 0,00 h 0,025 mm 0,0 UV-I 0 W/m 5,5 C 1,5 C 25,3 km/h (4 Bft) 95,83 %
27.12.2022 04:00 7,1 C 3,9 C 5,0 C 84 % 1024,5 hPa 0,0 l/m 17,2 km/h (3 Bft) W 0,00 h 0,000 mm 0,0 UV-I 0 W/m 4,6 C 0,6 C 27,0 km/h (4 Bft) 98,98 %
27.12.2022 05:00 6,2 C 3,9 C 4,6 C 81 % 1025,9 hPa 0,0 l/m 10,0 km/h (2 Bft) W-NW 0,00 h 0,026 mm 0,0 UV-I 0 W/m 3,2 C 3,6 C 18,6 km/h (3 Bft) 97,16 %
27.12.2022 06:00 5,0 C 3,9 C 3,7 C 81 % 1027,2 hPa 0,0 l/m 11,6 km/h (2 Bft) W 0,00 h 0,025 mm 0,0 UV-I 0 W/m 2,1 C 1,2 C 21,1 km/h (4 Bft) 97,86 %
27.12.2022 07:00 3,7 C 3,9 C 1,7 C 86 % 1028,2 hPa 0,0 l/m 9,4 km/h (2 Bft) W-NW 0,00 h 0,025 mm 0,0 UV-I 0 W/m 1,5 C 1,1 C 17,0 km/h (3 Bft) 94,99 %
27.12.2022 08:00 3,3 C 3,9 C 1,5 C 85 % 1029,3 hPa 0,0 l/m 9,9 km/h (2 Bft) W 0,00 h 0,026 mm 0,0 UV-I 13 W/m 0,9 C 0,3 C 16,5 km/h (3 Bft) 99,13 %
27.12.2022 09:00 3,6 C 3,9 C 2,2 C 82 % 1029,8 hPa 0,0 l/m 9,6 km/h (2 Bft) W 0,80 h 0,025 mm 0,0 UV-I 127 W/m 0,9 C 1,0 C 15,5 km/h (3 Bft) 97,54 %
27.12.2022 10:00 5,1 C 3,9 C 4,1 C 75 % 1029,9 hPa 0,0 l/m 14,0 km/h (3 Bft) W 1,00 h 0,076 mm 0,0 UV-I 221 W/m 1,0 C -0,2 C 21,5 km/h (4 Bft) 98,70 %
27.12.2022 11:00 6,2 C 3,9 C 6,3 C 70 % 1029,7 hPa 0,0 l/m 12,2 km/h (2 Bft) W-SW 1,00 h 0,127 mm 0,5 UV-I 269 W/m 1,1 C 2,2 C 19,8 km/h (3 Bft) 98,03 %
27.12.2022 12:00 6,7 C 3,9 C 6,7 C 71 % 1029,2 hPa 0,0 l/m 12,1 km/h (2 Bft) W-SW 1,00 h 0,153 mm 0,5 UV-I 283 W/m 1,7 C 2,7 C 19,2 km/h (3 Bft) 98,11 %
27.12.2022 13:00 6,9 C 3,9 C 6,7 C 69 % 1028,7 hPa 0,0 l/m 8,4 km/h (2 Bft) W-NW 1,00 h 0,152 mm 0,0 UV-I 238 W/m 1,6 C 5,3 C 14,9 km/h (3 Bft) 96,15 %
27.12.2022 14:00 7,1 C 3,9 C 7,0 C 69 % 1028,2 hPa 0,0 l/m 7,5 km/h (2 Bft) W 0,97 h 0,127 mm 0,0 UV-I 170 W/m 1,8 C 5,9 C 12,6 km/h (3 Bft) 96,65 %
27.12.2022 15:00 6,2 C 3,9 C 4,5 C 73 % 1028,4 hPa 0,0 l/m 6,6 km/h (2 Bft) W 0,00 h 0,102 mm 0,0 UV-I 35 W/m 1,7 C 5,5 C 11,4 km/h (2 Bft) 96,43 %
27.12.2022 16:00 4,1 C 3,9 C 0,4 C 81 % 1028,7 hPa 0,0 l/m 4,3 km/h (1 Bft) SW 0,00 h 0,025 mm 0,0 UV-I 1 W/m 1,1 C 4,0 C 6,2 km/h (2 Bft) 97,80 %
27.12.2022 17:00 2,9 C 3,9 C -0,6 C 85 % 1028,9 hPa 0,0 l/m 5,7 km/h (1 Bft) SW 0,00 h 0,000 mm 0,0 UV-I 0 W/m 0,7 C 2,8 C 7,5 km/h (2 Bft) 97,95 %
27.12.2022 18:00 1,8 C 3,9 C -1,5 C 89 % 1028,8 hPa 0,0 l/m 5,2 km/h (1 Bft) S-SW 0,00 h 0,000 mm 0,0 UV-I 0 W/m 0,1 C 1,8 C 6,9 km/h (2 Bft) 97,16 %
27.12.2022 19:00 1,2 C 3,9 C -1,6 C 91 % 1028,5 hPa 0,0 l/m 4,6 km/h (1 Bft) S-SW 0,00 h 0,000 mm 0,0 UV-I 0 W/m -0,2 C 1,1 C 6,2 km/h (2 Bft) 96,71 %
27.12.2022 20:00 1,6 C 3,9 C -0,2 C 89 % 1028,2 hPa 0,0 l/m 4,6 km/h (1 Bft) S-SW 0,00 h 0,000 mm 0,0 UV-I 0 W/m 0,1 C 1,6 C 6,1 km/h (2 Bft) 96,97 %
27.12.2022 21:00 1,4 C 4,1 C -0,6 C 91 % 1028,1 hPa 0,0 l/m 3,4 km/h (1 Bft) S-SW 0,00 h 0,000 mm 0,0 UV-I 0 W/m 0,1 C 1,4 C 4,7 km/h (1 Bft) 96,97 %
27.12.2022 22:00 0,5 C 4,4 C -1,7 C 92 % 1027,9 hPa 0,0 l/m 1,6 km/h (1 Bft) S 0,00 h 0,000 mm 0,0 UV-I 0 W/m -0,7 C 0,5 C 2,8 km/h (1 Bft) 98,68 %
27.12.2022 23:00 -0,4 C 4,0 C -2,8 C 95 % 1027,8 hPa 0,0 l/m 2,3 km/h (1 Bft) O-NO 0,00 h 0,000 mm 0,0 UV-I 0 W/m -1,2 C -0,4 C 3,6 km/h (1 Bft) 95,52 %
28.12.2022 00:00 -1,0 C 3,9 C -3,6 C 95 % 1027,4 hPa 0,0 l/m 1,1 km/h (1 Bft) S-SO 0,00 h 0,000 mm 0,0 UV-I 0 W/m -1,7 C -1,0 C 2,0 km/h (1 Bft) 98,21 %
28.12.2022 01:00 -1,3 C 3,9 C -4,0 C 96 % 1026,9 hPa 0,0 l/m 0,5 km/h (0 Bft) S-SO 0,00 h 0,000 mm 0,0 UV-I 0 W/m -1,9 C -1,3 C 1,0 km/h (0 Bft) 97,55 %
28.12.2022 02:00 -1,6 C 3,9 C -4,2 C 96 % 1026,8 hPa 0,0 l/m 1,3 km/h (1 Bft) S-SO 0,00 h 0,000 mm 0,0 UV-I 0 W/m -2,2 C -1,6 C 2,3 km/h (1 Bft) 96,43 %
28.12.2022 03:00 -1,9 C 3,9 C -4,3 C 96 % 1026,3 hPa 0,0 l/m 1,7 km/h (1 Bft) S 0,00 h 0,000 mm 0,0 UV-I 0 W/m -2,4 C -1,9 C 2,9 km/h (1 Bft) 97,37 %
28.12.2022 04:00 -2,1 C 3,9 C -4,6 C 96 % 1025,7 hPa 0,0 l/m 1,3 km/h (1 Bft) S 0,00 h 0,000 mm 0,0 UV-I 0 W/m -2,7 C -2,1 C 1,9 km/h (1 Bft) 96,72 %
28.12.2022 05:00 -2,2 C 3,9 C -4,5 C 96 % 1025,3 hPa 0,0 l/m 1,9 km/h (1 Bft) S 0,00 h 0,000 mm 0,0 UV-I 0 W/m -2,7 C -2,2 C 2,6 km/h (1 Bft) 97,49 %
28.12.2022 06:00 -2,1 C 3,9 C -4,0 C 97 % 1025,1 hPa 0,0 l/m 1,5 km/h (1 Bft) S 0,00 h 0,000 mm 0,0 UV-I 0 W/m -2,6 C -2,1 C 2,5 km/h (1 Bft) 97,42 %
28.12.2022 07:00 -2,0 C 3,9 C -3,1 C 97 % 1024,8 hPa 0,0 l/m 0,0 km/h (0 Bft) N 0,00 h 0,000 mm 0,0 UV-I 0 W/m -2,5 C -2,0 C 0,0 km/h (0 Bft) 97,23 %
28.12.2022 08:00 -1,8 C 3,9 C -3,4 C 97 % 1024,8 hPa 0,0 l/m 0,5 km/h (0 Bft) O-NO 0,10 h 0,000 mm 0,0 UV-I 22 W/m -2,2 C -1,8 C 1,0 km/h (0 Bft) 98,19 %
28.12.2022 09:00 -0,8 C 3,9 C -0,6 C 97 % 1024,9 hPa 0,2 l/m 0,0 km/h (0 Bft) N 0,30 h 0,000 mm 0,0 UV-I 91 W/m -1,2 C -0,8 C 0,1 km/h (0 Bft) 95,50 %
28.12.2022 10:00 0,7 C 3,9 C 1,7 C 97 % 1024,8 hPa 0,0 l/m 1,1 km/h (0 Bft) O-NO 0,80 h 0,025 mm 0,0 UV-I 231 W/m 0,3 C 0,7 C 1,5 km/h (1 Bft) 96,16 %
28.12.2022 11:00 2,2 C 3,9 C 3,6 C 93 % 1024,1 hPa 0,0 l/m 4,6 km/h (1 Bft) O-SO 0,47 h 0,077 mm 0,5 UV-I 171 W/m 1,1 C 2,0 C 7,5 km/h (2 Bft) 97,93 %
28.12.2022 12:00 3,6 C 3,9 C 4,5 C 87 % 1023,1 hPa 0,0 l/m 4,3 km/h (1 Bft) O 0,85 h 0,076 mm 0,5 UV-I 238 W/m 1,6 C 3,5 C 6,9 km/h (2 Bft) 97,44 %
28.12.2022 13:00 3,8 C 3,9 C 4,5 C 88 % 1022,2 hPa 0,0 l/m 6,0 km/h (2 Bft) O-NO 0,68 h 0,101 mm 0,4 UV-I 181 W/m 1,9 C 3,7 C 8,6 km/h (2 Bft) 97,89 %
28.12.2022 14:00 3,8 C 3,9 C 3,0 C 89 % 1021,4 hPa 0,0 l/m 3,1 km/h (1 Bft) O-NO 0,60 h 0,077 mm 0,0 UV-I 106 W/m 2,1 C 3,8 C 4,9 km/h (1 Bft) 98,17 %
28.12.2022 15:00 3,1 C 3,9 C 1,3 C 90 % 1021,2 hPa 0,0 l/m 4,3 km/h (1 Bft) NO 0,37 h 0,050 mm 0,0 UV-I 41 W/m 1,6 C 3,1 C 5,8 km/h (2 Bft) 96,10 %
28.12.2022 16:00 1,7 C 4,0 C -1,2 C 92 % 1021,1 hPa 0,0 l/m 2,0 km/h (1 Bft) O 0,00 h 0,026 mm 0,0 UV-I 3 W/m 0,4 C 1,7 C 3,8 km/h (1 Bft) 98,71 %
28.12.2022 17:00 0,3 C 4,3 C -2,6 C 94 % 1020,9 hPa 0,0 l/m 1,5 km/h (1 Bft) SO 0,00 h 0,000 mm 0,0 UV-I 0 W/m -0,6 C 0,3 C 3,0 km/h (1 Bft) 96,95 %
28.12.2022 18:00 -0,5 C 3,9 C -3,1 C 95 % 1020,6 hPa 0,0 l/m 1,1 km/h (1 Bft) O-NO 0,00 h 0,000 mm 0,0 UV-I 0 W/m -1,2 C -0,5 C 2,0 km/h (1 Bft) 96,15 %
28.12.2022 19:00 -0,8 C 3,9 C -3,2 C 96 % 1020,2 hPa 0,0 l/m 2,4 km/h (1 Bft) O-NO 0,00 h 0,000 mm 0,0 UV-I 0 W/m -1,4 C -0,8 C 3,6 km/h (1 Bft) 98,79 %
28.12.2022 20:00 -0,9 C 3,9 C -2,7 C 96 % 1019,8 hPa 0,0 l/m 1,0 km/h (0 Bft) S 0,00 h 0,000 mm 0,0 UV-I 0 W/m -1,4 C -0,9 C 1,7 km/h (1 Bft) 96,68 %
28.12.2022 21:00 -0,5 C 3,9 C -1,7 C 97 % 1019,5 hPa 0,0 l/m 1,6 km/h (1 Bft) O 0,00 h 0,000 mm 0,0 UV-I 0 W/m -1,0 C -0,5 C 3,3 km/h (1 Bft) 97,28 %
28.12.2022 22:00 -0,6 C 3,9 C -2,1 C 97 % 1019,2 hPa 0,0 l/m 2,2 km/h (1 Bft) S 0,00 h 0,000 mm 0,0 UV-I 0 W/m -1,1 C -0,6 C 3,8 km/h (1 Bft) 94,64 %
28.12.2022 23:00 -1,1 C 3,9 C -3,5 C 96 % 1018,9 hPa 0,0 l/m 1,3 km/h (1 Bft) S-SO 0,00 h 0,000 mm 0,0 UV-I 0 W/m -1,6 C -1,1 C 2,3 km/h (1 Bft) 98,44 %
29.12.2022 00:00 -1,5 C 3,9 C -3,8 C 97 % 1018,6 hPa 0,0 l/m 1,3 km/h (1 Bft) S 0,00 h 0,000 mm 0,0 UV-I 0 W/m -1,9 C -1,5 C 2,7 km/h (1 Bft) 98,99 %
29.12.2022 01:00 -1,1 C 3,9 C -2,7 C 97 % 1018,2 hPa 0,0 l/m 2,8 km/h (1 Bft) SO 0,00 h 0,000 mm 0,0 UV-I 0 W/m -1,5 C -1,1 C 4,8 km/h (1 Bft) 95,71 %
29.12.2022 02:00 -0,9 C 3,9 C -2,9 C 96 % 1017,9 hPa 0,0 l/m 1,8 km/h (1 Bft) O 0,00 h 0,000 mm 0,0 UV-I 0 W/m -1,4 C -0,9 C 2,8 km/h (1 Bft) 97,50 %
29.12.2022 03:00 -1,0 C 3,9 C -3,0 C 96 % 1017,5 hPa 0,0 l/m 2,5 km/h (1 Bft) O-NO 0,00 h 0,000 mm 0,0 UV-I 0 W/m -1,6 C -1,0 C 4,3 km/h (1 Bft) 97,02 %
29.12.2022 04:00 -1,6 C 3,9 C -4,2 C 96 % 1017,2 hPa 0,0 l/m 1,9 km/h (1 Bft) O-NO 0,00 h 0,000 mm 0,0 UV-I 0 W/m -2,2 C -1,6 C 3,3 km/h (1 Bft) 98,12 %
29.12.2022 05:00 -1,7 C 3,9 C -3,8 C 96 % 1017,2 hPa 0,0 l/m 3,2 km/h (1 Bft) O-NO 0,00 h 0,000 mm 0,0 UV-I 0 W/m -2,2 C -1,7 C 5,0 km/h (1 Bft) 96,51 %
29.12.2022 06:00 -2,1 C 3,9 C -4,2 C 96 % 1017,3 hPa 0,0 l/m 1,6 km/h (1 Bft) O-NO 0,00 h 0,000 mm 0,0 UV-I 0 W/m -2,7 C -2,2 C 3,7 km/h (1 Bft) 96,86 %
29.12.2022 07:00 -1,5 C 3,9 C -3,3 C 96 % 1017,0 hPa 0,0 l/m 3,1 km/h (1 Bft) NO 0,00 h 0,000 mm 0,0 UV-I 1 W/m -2,1 C -1,6 C 5,8 km/h (2 Bft) 98,87 %
29.12.2022 08:00 -1,3 C 3,9 C -1,8 C 96 % 1017,1 hPa 0,0 l/m 2,6 km/h (1 Bft) O 0,53 h 0,000 mm 0,0 UV-I 42 W/m -1,9 C -1,4 C 4,4 km/h (1 Bft) 97,08 %
29.12.2022 09:00 -0,1 C 3,9 C 0,2 C 96 % 1017,2 hPa 0,2 l/m 1,1 km/h (1 Bft) S-SO 0,30 h 0,025 mm 0,0 UV-I 84 W/m -0,7 C -0,1 C 2,3 km/h (1 Bft) 98,85 %
29.12.2022 10:00 1,1 C 3,9 C 2,2 C 94 % 1017,4 hPa 0,0 l/m 0,2 km/h (0 Bft) O 0,00 h 0,026 mm 0,0 UV-I 99 W/m 0,2 C 1,1 C 0,5 km/h (0 Bft) 95,79 %
29.12.2022 11:00 2,8 C 3,9 C 4,1 C 90 % 1016,9 hPa 0,0 l/m 2,2 km/h (1 Bft) S-SO 0,23 h 0,051 mm 0,4 UV-I 156 W/m 1,3 C 2,7 C 4,5 km/h (1 Bft) 96,09 %
29.12.2022 12:00 4,4 C 3,9 C 5,4 C 83 % 1016,5 hPa 0,0 l/m 3,1 km/h (1 Bft) O-NO 0,67 h 0,076 mm 0,5 UV-I 197 W/m 1,9 C 4,4 C 5,6 km/h (1 Bft) 96,00 %
29.12.2022 13:00 4,5 C 3,9 C 5,4 C 84 % 1015,7 hPa 0,0 l/m 4,6 km/h (1 Bft) O 0,27 h 0,076 mm 0,1 UV-I 141 W/m 2,0 C 4,3 C 7,2 km/h (2 Bft) 97,29 %
29.12.2022 14:00 5,1 C 3,9 C 4,6 C 82 % 1015,7 hPa 0,0 l/m 2,5 km/h (1 Bft) NO 0,80 h 0,076 mm 0,0 UV-I 136 W/m 2,2 C 5,1 C 4,4 km/h (1 Bft) 98,79 %
29.12.2022 15:00 4,4 C 3,9 C 2,9 C 84 % 1015,9 hPa 0,0 l/m 2,1 km/h (1 Bft) SO 0,00 h 0,051 mm 0,0 UV-I 30 W/m 2,0 C 4,4 C 3,8 km/h (1 Bft) 97,28 %
29.12.2022 16:00 3,1 C 3,9 C 1,2 C 88 % 1015,8 hPa 0,0 l/m 3,0 km/h (1 Bft) S 0,03 h 0,025 mm 0,0 UV-I 4 W/m 1,4 C 3,1 C 5,7 km/h (1 Bft) 97,12 %
29.12.2022 17:00 2,2 C 3,9 C -0,1 C 90 % 1015,9 hPa 0,0 l/m 3,0 km/h (1 Bft) O-NO 0,00 h 0,000 mm 0,0 UV-I 0 W/m 0,7 C 2,1 C 5,0 km/h (1 Bft) 95,52 %
29.12.2022 18:00 0,7 C 3,9 C -1,3 C 93 % 1016,0 hPa 0,0 l/m 2,7 km/h (1 Bft) SW 0,00 h 0,000 mm 0,0 UV-I 0 W/m -0,3 C 0,7 C 4,5 km/h (1 Bft) 98,56 %
29.12.2022 19:00 0,3 C 3,9 C -1,8 C 94 % 1016,2 hPa 0,0 l/m 2,3 km/h (1 Bft) S-SO 0,00 h 0,000 mm 0,0 UV-I 0 W/m -0,5 C 0,3 C 3,8 km/h (1 Bft) 97,34 %
29.12.2022 20:00 -0,0 C 3,9 C -1,8 C 95 % 1016,2 hPa 0,0 l/m 1,6 km/h (1 Bft) W-SW 0,00 h 0,000 mm 0,0 UV-I 0 W/m -0,7 C -0,0 C 3,4 km/h (1 Bft) 95,88 %
29.12.2022 21:00 -0,2 C 3,9 C -1,9 C 96 % 1016,1 hPa 0,0 l/m 0,5 km/h (0 Bft) W-NW 0,00 h 0,000 mm 0,0 UV-I 0 W/m -0,9 C -0,2 C 1,7 km/h (1 Bft) 97,19 %
29.12.2022 22:00 0,1 C 3,9 C -0,9 C 96 % 1015,9 hPa 0,0 l/m 1,0 km/h (0 Bft) S-SO 0,00 h 0,000 mm 0,0 UV-I 0 W/m -0,5 C 0,1 C 2,2 km/h (1 Bft) 97,52 %
29.12.2022 23:00 0,8 C 3,9 C -0,2 C 96 % 1015,8 hPa 0,0 l/m 1,8 km/h (1 Bft) O 0,00 h 0,000 mm 0,0 UV-I 0 W/m 0,2 C 0,8 C 3,7 km/h (1 Bft) 97,79 %
30.12.2022 00:00 0,5 C 3,9 C -0,8 C 95 % 1015,7 hPa 0,0 l/m 0,8 km/h (0 Bft) N-NW 0,00 h 0,000 mm 0,0 UV-I 0 W/m -0,2 C 0,5 C 1,7 km/h (1 Bft) 88,46 %
30.12.2022 01:00 0,2 C 3,9 C -0,9 C 96 % 1016,2 hPa 0,0 l/m 2,3 km/h (1 Bft) SW 0,00 h 0,000 mm 0,0 UV-I 0 W/m -0,4 C 0,2 C 3,6 km/h (1 Bft) 95,02 %
30.12.2022 02:00 0,4 C 3,9 C -0,7 C 96 % 1017,0 hPa 0,0 l/m 3,3 km/h (1 Bft) SW 0,00 h 0,000 mm 0,0 UV-I 0 W/m -0,1 C 0,4 C 5,2 km/h (1 Bft) 98,92 %
30.12.2022 03:00 0,8 C 3,9 C 0,3 C 96 % 1017,5 hPa 0,0 l/m 3,3 km/h (1 Bft) SW 0,00 h 0,000 mm 0,0 UV-I 0 W/m 0,3 C 0,8 C 5,1 km/h (1 Bft) 97,34 %
30.12.2022 04:00 2,5 C 3,9 C 1,8 C 93 % 1018,2 hPa 0,0 l/m 8,6 km/h (2 Bft) SW 0,00 h 0,000 mm 0,0 UV-I 0 W/m 1,5 C 0,5 C 13,1 km/h (3 Bft) 98,57 %
30.12.2022 05:00 4,1 C 3,9 C 3,0 C 88 % 1018,8 hPa 0,0 l/m 7,8 km/h (2 Bft) SW 0,00 h 0,000 mm 0,0 UV-I 0 W/m 2,4 C 2,7 C 10,6 km/h (2 Bft) 95,87 %
30.12.2022 06:00 4,6 C 3,9 C 3,5 C 89 % 1019,6 hPa 0,0 l/m 9,6 km/h (2 Bft) SW 0,00 h 0,000 mm 0,0 UV-I 0 W/m 2,9 C 2,1 C 13,6 km/h (3 Bft) 96,00 %
30.12.2022 07:00 5,2 C 3,9 C 4,0 C 91 % 1020,1 hPa 0,0 l/m 9,6 km/h (2 Bft) SW 0,00 h 0,000 mm 0,0 UV-I 0 W/m 3,9 C 2,6 C 14,4 km/h (3 Bft) 97,90 %
30.12.2022 08:00 5,0 C 3,9 C 3,6 C 93 % 1020,3 hPa 0,0 l/m 4,6 km/h (1 Bft) S-SW 0,00 h 0,000 mm 0,0 UV-I 5 W/m 3,9 C 4,9 C 6,7 km/h (2 Bft) 96,98 %
30.12.2022 09:00 6,0 C 3,9 C 5,5 C 92 % 1020,4 hPa 0,0 l/m 1,5 km/h (1 Bft) S-SW 0,67 h 0,000 mm 0,0 UV-I 140 W/m 4,8 C 6,0 C 2,6 km/h (1 Bft) 98,37 %
30.12.2022 10:00 7,5 C 3,9 C 7,5 C 86 % 1020,4 hPa 0,0 l/m 3,2 km/h (1 Bft) S 0,87 h 0,076 mm 0,0 UV-I 228 W/m 5,2 C 7,0 C 4,9 km/h (1 Bft) 97,70 %
30.12.2022 11:00 7,2 C 3,9 C 7,6 C 88 % 1019,5 hPa 0,0 l/m 6,6 km/h (2 Bft) NO 1,00 h 0,102 mm 0,5 UV-I 259 W/m 5,3 C 6,3 C 9,0 km/h (2 Bft) 97,58 %
30.12.2022 12:00 7,8 C 3,9 C 8,0 C 86 % 1018,9 hPa 0,0 l/m 10,3 km/h (2 Bft) O 1,00 h 0,127 mm 0,5 UV-I 261 W/m 5,6 C 5,0 C 14,7 km/h (3 Bft) 95,46 %
30.12.2022 13:00 8,0 C 3,9 C 8,1 C 83 % 1017,9 hPa 0,0 l/m 11,0 km/h (2 Bft) O 1,00 h 0,127 mm 0,0 UV-I 215 W/m 5,4 C 4,9 C 15,5 km/h (3 Bft) 96,69 %
30.12.2022 14:00 8,1 C 3,9 C 7,4 C 82 % 1017,2 hPa 0,0 l/m 13,4 km/h (3 Bft) O-NO 1,00 h 0,127 mm 0,0 UV-I 146 W/m 5,2 C 3,6 C 18,0 km/h (3 Bft) 97,07 %
30.12.2022 15:00 7,5 C 3,9 C 5,6 C 83 % 1017,0 hPa 0,0 l/m 8,1 km/h (2 Bft) O-NO 0,27 h 0,101 mm 0,0 UV-I 48 W/m 4,8 C 6,1 C 12,2 km/h (2 Bft) 96,14 %
30.12.2022 16:00 6,0 C 3,9 C 1,7 C 87 % 1016,8 hPa 0,0 l/m 3,4 km/h (1 Bft) O-NO 0,00 h 0,026 mm 0,0 UV-I 3 W/m 4,1 C 6,0 C 5,3 km/h (1 Bft) 96,50 %
30.12.2022 17:00 4,9 C 3,9 C 0,8 C 91 % 1016,5 hPa 0,0 l/m 2,2 km/h (1 Bft) O-NO 0,00 h 0,000 mm 0,0 UV-I 0 W/m 3,5 C 4,9 C 3,7 km/h (1 Bft) 98,16 %
30.12.2022 18:00 4,1 C 3,9 C 1,1 C 92 % 1016,1 hPa 0,0 l/m 1,6 km/h (1 Bft) O-NO 0,00 h 0,000 mm 0,0 UV-I 0 W/m 2,9 C 4,1 C 2,8 km/h (1 Bft) 97,06 %
30.12.2022 19:00 3,0 C 3,9 C 0,2 C 94 % 1016,1 hPa 0,0 l/m 1,5 km/h (1 Bft) SO 0,00 h 0,000 mm 0,0 UV-I 0 W/m 2,2 C 3,0 C 2,9 km/h (1 Bft) 97,36 %
30.12.2022 20:00 2,5 C 3,9 C 0,5 C 95 % 1016,6 hPa 0,0 l/m 1,8 km/h (1 Bft) SW 0,00 h 0,000 mm 0,0 UV-I 0 W/m 1,8 C 2,5 C 3,0 km/h (1 Bft) 95,70 %
30.12.2022 21:00 2,4 C 3,9 C 1,3 C 96 % 1017,5 hPa 0,0 l/m 3,6 km/h (1 Bft) S 0,00 h 0,000 mm 0,0 UV-I 0 W/m 1,8 C 2,4 C 5,3 km/h (1 Bft) 96,94 %
30.12.2022 22:00 3,2 C 3,9 C 2,6 C 96 % 1017,8 hPa 0,2 l/m 3,3 km/h (1 Bft) S 0,00 h 0,000 mm 0,0 UV-I 0 W/m 2,7 C 3,2 C 5,6 km/h (1 Bft) 97,80 %
30.12.2022 23:00 3,5 C 3,9 C 3,2 C 96 % 1018,0 hPa 0,0 l/m 2,7 km/h (1 Bft) NO 0,00 h 0,000 mm 0,0 UV-I 0 W/m 2,9 C 3,5 C 4,7 km/h (1 Bft) 96,89 %
31.12.2022 00:00 3,5 C 3,9 C 3,3 C 96 % 1018,4 hPa 0,0 l/m 4,2 km/h (1 Bft) NO 0,00 h 0,000 mm 0,0 UV-I 0 W/m 3,0 C 3,5 C 6,8 km/h (2 Bft) 97,44 %
31.12.2022 01:00 3,6 C 3,9 C 3,3 C 97 % 1019,4 hPa 0,2 l/m 2,9 km/h (1 Bft) W 0,00 h 0,000 mm 0,0 UV-I 0 W/m 3,2 C 3,5 C 5,1 km/h (1 Bft) 96,45 %
31.12.2022 02:00 4,1 C 3,9 C 3,9 C 97 % 1019,5 hPa 0,2 l/m 6,1 km/h (2 Bft) S 0,00 h 0,000 mm 0,0 UV-I 0 W/m 3,7 C 3,5 C 9,2 km/h (2 Bft) 98,36 %
31.12.2022 03:00 4,0 C 3,9 C 3,9 C 97 % 1019,6 hPa 0,0 l/m 6,4 km/h (2 Bft) NO 0,00 h 0,000 mm 0,0 UV-I 0 W/m 3,6 C 3,3 C 9,7 km/h (2 Bft) 97,56 %
31.12.2022 04:00 4,2 C 3,9 C 4,0 C 97 % 1019,8 hPa 0,0 l/m 3,5 km/h (1 Bft) S-SO 0,00 h 0,000 mm 0,0 UV-I 0 W/m 3,8 C 4,2 C 5,7 km/h (1 Bft) 98,09 %
31.12.2022 05:00 4,5 C 3,9 C 4,4 C 97 % 1019,9 hPa 0,0 l/m 4,0 km/h (1 Bft) NO 0,00 h 0,000 mm 0,0 UV-I 0 W/m 4,1 C 4,5 C 6,1 km/h (2 Bft) 96,45 %
31.12.2022 06:00 4,5 C 3,9 C 4,1 C 97 % 1020,5 hPa 0,0 l/m 1,8 km/h (1 Bft) NO 0,00 h 0,000 mm 0,0 UV-I 0 W/m 4,1 C 4,5 C 3,9 km/h (1 Bft) 98,03 %
31.12.2022 07:00 4,6 C 3,9 C 4,4 C 97 % 1020,8 hPa 0,0 l/m 2,6 km/h (1 Bft) NO 0,00 h 0,000 mm 0,0 UV-I 0 W/m 4,2 C 4,6 C 4,2 km/h (1 Bft) 97,53 %
31.12.2022 08:00 4,9 C 3,9 C 4,8 C 97 % 1021,4 hPa 0,0 l/m 1,9 km/h (1 Bft) S-SO 0,00 h 0,000 mm 0,0 UV-I 11 W/m 4,5 C 4,9 C 3,5 km/h (1 Bft) 98,24 %
31.12.2022 09:00 5,6 C 3,9 C 5,9 C 97 % 1021,5 hPa 0,4 l/m 3,6 km/h (1 Bft) NO 0,00 h 0,000 mm 0,0 UV-I 36 W/m 5,2 C 5,2 C 5,5 km/h (1 Bft) 96,74 %
31.12.2022 10:00 5,7 C 3,9 C 6,4 C 97 % 1022,0 hPa 0,0 l/m 3,6 km/h (1 Bft) N-NO 0,00 h 0,025 mm 0,0 UV-I 68 W/m 5,2 C 5,7 C 5,3 km/h (1 Bft) 96,37 %
31.12.2022 11:00 7,1 C 3,9 C 8,1 C 96 % 1021,8 hPa 0,0 l/m 3,4 km/h (1 Bft) W-NW 0,00 h 0,026 mm 0,0 UV-I 97 W/m 6,6 C 7,1 C 5,8 km/h (2 Bft) 97,97 %
31.12.2022 12:00 8,5 C 3,9 C 9,4 C 94 % 1021,4 hPa 0,0 l/m 4,7 km/h (1 Bft) O-NO 0,00 h 0,051 mm 0,0 UV-I 113 W/m 7,5 C 8,4 C 7,3 km/h (2 Bft) 98,45 %
31.12.2022 13:00 9,1 C 3,9 C 9,3 C 92 % 1021,1 hPa 0,0 l/m 3,5 km/h (1 Bft) NO 0,00 h 0,050 mm 0,0 UV-I 68 W/m 7,9 C 9,1 C 5,1 km/h (1 Bft) 98,10 %
31.12.2022 14:00 8,9 C 4,1 C 9,2 C 93 % 1020,8 hPa 0,0 l/m 3,0 km/h (1 Bft) NO 0,17 h 0,051 mm 0,0 UV-I 84 W/m 7,8 C 8,9 C 4,1 km/h (1 Bft) 98,01 %
31.12.2022 15:00 9,1 C 4,0 C 8,1 C 93 % 1020,9 hPa 0,0 l/m 1,9 km/h (1 Bft) NO 0,27 h 0,051 mm 0,0 UV-I 49 W/m 7,9 C 9,1 C 3,1 km/h (1 Bft) 94,54 %
31.12.2022 16:00 7,6 C 4,3 C 4,2 C 94 % 1021,2 hPa 0,0 l/m 0,3 km/h (0 Bft) O-NO 0,00 h 0,025 mm 0,0 UV-I 4 W/m 6,7 C 7,6 C 0,9 km/h (0 Bft) 97,98 %
31.12.2022 17:00 6,2 C 4,4 C 3,6 C 96 % 1021,4 hPa 0,0 l/m 2,6 km/h (1 Bft) S 0,00 h 0,000 mm 0,0 UV-I 0 W/m 5,7 C 6,2 C 3,5 km/h (1 Bft) 97,20 %
31.12.2022 18:00 5,4 C 4,4 C 3,5 C 97 % 1021,5 hPa 0,0 l/m 3,0 km/h (1 Bft) S 0,00 h 0,000 mm 0,0 UV-I 0 W/m 5,0 C 5,4 C 4,4 km/h (1 Bft) 96,96 %
31.12.2022 19:00 4,9 C 4,4 C 2,5 C 97 % 1021,6 hPa 0,0 l/m 0,8 km/h (0 Bft) S-SO 0,00 h 0,000 mm 0,0 UV-I 0 W/m 4,5 C 4,9 C 1,2 km/h (1 Bft) 98,22 %
31.12.2022 20:00 4,5 C 4,4 C 2,4 C 98 % 1021,5 hPa 0,0 l/m 4,0 km/h (1 Bft) S-SW 0,00 h 0,000 mm 0,0 UV-I 0 W/m 4,2 C 4,5 C 5,1 km/h (1 Bft) 94,13 %
31.12.2022 21:00 4,7 C 4,4 C 2,7 C 98 % 1021,3 hPa 0,0 l/m 4,5 km/h (1 Bft) S-SW 0,00 h 0,000 mm 0,0 UV-I 0 W/m 4,4 C 4,7 C 5,5 km/h (1 Bft) 97,74 %
31.12.2022 22:00 4,6 C 4,4 C 2,8 C 98 % 1021,3 hPa 0,0 l/m 4,5 km/h (1 Bft) S-SO 0,00 h 0,000 mm 0,0 UV-I 0 W/m 4,3 C 4,6 C 6,1 km/h (2 Bft) 99,11 %
31.12.2022 23:00 4,2 C 4,4 C 1,8 C 98 % 1021,3 hPa 0,0 l/m 3,1 km/h (1 Bft) S 0,00 h 0,000 mm 0,0 UV-I 0 W/m 3,9 C 4,2 C 3,9 km/h (1 Bft) 96,67 %
01.01.2023 00:00 4,2 C 4,4 C 2,1 C 98 % 1021,8 hPa 0,0 l/m 4,2 km/h (1 Bft) S-SW 0,00 h 0,000 mm 0,0 UV-I 0 W/m 3,9 C 4,2 C 5,6 km/h (1 Bft) 98,38 %
01.01.2023 01:00 4,5 C 4,4 C 1,6 C 98 % 1022,4 hPa 0,0 l/m 3,3 km/h (1 Bft) SW 0,00 h 0,000 mm 0,0 UV-I 0 W/m 4,2 C 4,4 C 4,7 km/h (1 Bft) 95,39 %
01.01.2023 02:00 4,0 C 4,4 C 1,9 C 98 % 1022,5 hPa 0,0 l/m 5,6 km/h (1 Bft) S 0,00 h 0,000 mm 0,0 UV-I 0 W/m 3,8 C 3,7 C 7,7 km/h (2 Bft) 96,49 %
01.01.2023 03:00 3,3 C 4,4 C 0,9 C 98 % 1022,4 hPa 0,0 l/m 2,9 km/h (1 Bft) S 0,00 h 0,000 mm 0,0 UV-I 0 W/m 3,0 C 3,3 C 4,1 km/h (1 Bft) 99,03 %
01.01.2023 04:00 3,2 C 4,4 C 2,0 C 98 % 1022,6 hPa 0,0 l/m 1,3 km/h (1 Bft) S 0,00 h 0,000 mm 0,0 UV-I 0 W/m 2,9 C 3,2 C 2,2 km/h (1 Bft) 97,16 %
01.01.2023 05:00 3,3 C 4,4 C 1,6 C 98 % 1022,8 hPa 0,0 l/m 2,5 km/h (1 Bft) O-NO 0,00 h 0,000 mm 0,0 UV-I 0 W/m 3,0 C 3,3 C 4,2 km/h (1 Bft) 98,01 %
01.01.2023 06:00 2,6 C 4,4 C 0,6 C 98 % 1023,3 hPa 0,0 l/m 3,4 km/h (1 Bft) S-SW 0,00 h 0,000 mm 0,0 UV-I 0 W/m 2,3 C 2,6 C 4,9 km/h (1 Bft) 95,73 %
01.01.2023 07:00 2,3 C 4,4 C 0,4 C 98 % 1023,9 hPa 0,0 l/m 4,4 km/h (1 Bft) S 0,00 h 0,000 mm 0,0 UV-I 0 W/m 2,0 C 2,2 C 5,9 km/h (2 Bft) 96,92 %
01.01.2023 08:00 2,6 C 4,4 C 0,6 C 98 % 1024,3 hPa 0,0 l/m 3,6 km/h (1 Bft) S-SW 0,03 h 0,000 mm 0,0 UV-I 23 W/m 2,3 C 2,6 C 4,8 km/h (1 Bft) 98,62 %
01.01.2023 09:00 3,5 C 4,4 C 1,9 C 98 % 1024,7 hPa 0,0 l/m 1,8 km/h (1 Bft) S-SW 0,60 h 0,025 mm 0,0 UV-I 102 W/m 3,2 C 3,5 C 2,8 km/h (1 Bft) 97,03 %
01.01.2023 10:00 6,0 C 4,4 C 4,5 C 98 % 1025,0 hPa 0,0 l/m 1,4 km/h (1 Bft) N 1,00 h 0,051 mm 0,5 UV-I 208 W/m 5,7 C 6,0 C 2,5 km/h (1 Bft) 98,23 %
01.01.2023 11:00 7,7 C 4,4 C 7,5 C 94 % 1024,8 hPa 0,0 l/m 4,6 km/h (1 Bft) NO 1,00 h 0,076 mm 0,6 UV-I 264 W/m 6,8 C 7,7 C 6,2 km/h (2 Bft) 96,74 %
01.01.2023 12:00 9,6 C 4,4 C 8,9 C 88 % 1024,6 hPa 0,0 l/m 2,5 km/h (1 Bft) O 1,00 h 0,127 mm 0,6 UV-I 232 W/m 7,7 C 9,6 C 3,7 km/h (1 Bft) 97,76 %
01.01.2023 13:00 11,7 C 4,4 C 10,1 C 79 % 1024,0 hPa 0,0 l/m 3,1 km/h (1 Bft) S-SO 1,00 h 0,102 mm 0,5 UV-I 214 W/m 8,1 C 11,7 C 5,6 km/h (1 Bft) 97,21 %
01.01.2023 14:00 11,8 C 4,4 C 9,7 C 80 % 1023,9 hPa 0,0 l/m 2,3 km/h (1 Bft) O-NO 1,00 h 0,127 mm 0,0 UV-I 145 W/m 8,5 C 11,8 C 3,8 km/h (1 Bft) 98,19 %
01.01.2023 15:00 10,6 C 4,4 C 7,7 C 84 % 1024,1 hPa 0,0 l/m 4,2 km/h (1 Bft) NO 0,63 h 0,076 mm 0,0 UV-I 57 W/m 8,0 C 10,6 C 5,5 km/h (1 Bft) 95,97 %
01.01.2023 16:00 8,4 C 4,4 C 4,1 C 90 % 1024,0 hPa 0,0 l/m 3,5 km/h (1 Bft) O-NO 0,00 h 0,051 mm 0,0 UV-I 6 W/m 6,9 C 8,4 C 4,9 km/h (1 Bft) 98,34 %
01.01.2023 17:00 6,5 C 4,4 C 3,1 C 94 % 1024,4 hPa 0,2 l/m 3,2 km/h (1 Bft) N-NO 0,00 h 0,000 mm 0,0 UV-I 0 W/m 5,6 C 6,5 C 4,3 km/h (1 Bft) 96,64 %
01.01.2023 18:00 5,6 C 4,4 C 1,8 C 96 % 1024,2 hPa 0,0 l/m 1,9 km/h (1 Bft) O-SO 0,00 h 0,000 mm 0,0 UV-I 0 W/m 5,0 C 5,6 C 3,6 km/h (1 Bft) 97,31 %
01.01.2023 19:00 5,2 C 4,4 C 0,8 C 96 % 1024,1 hPa 0,0 l/m 1,3 km/h (1 Bft) O-SO 0,00 h 0,000 mm 0,0 UV-I 0 W/m 4,6 C 5,2 C 2,4 km/h (1 Bft) 96,78 %
01.01.2023 20:00 4,8 C 4,4 C 0,5 C 96 % 1023,7 hPa 0,0 l/m 2,2 km/h (1 Bft) O 0,00 h 0,000 mm 0,0 UV-I 0 W/m 4,2 C 4,8 C 3,3 km/h (1 Bft) 96,83 %
01.01.2023 21:00 3,5 C 4,4 C 0,6 C 96 % 1023,5 hPa 0,0 l/m 2,5 km/h (1 Bft) S 0,00 h 0,000 mm 0,0 UV-I 0 W/m 2,9 C 3,5 C 3,4 km/h (1 Bft) 98,51 %
01.01.2023 22:00 2,8 C 4,4 C 0,2 C 97 % 1023,1 hPa 0,0 l/m 2,7 km/h (1 Bft) S 0,00 h 0,000 mm 0,0 UV-I 0 W/m 2,4 C 2,8 C 4,3 km/h (1 Bft) 98,33 %
01.01.2023 23:00 2,5 C 4,4 C -0,5 C 97 % 1022,7 hPa 0,0 l/m 0,8 km/h (0 Bft) SW 0,00 h 0,000 mm 0,0 UV-I 0 W/m 2,1 C 2,5 C 1,3 km/h (1 Bft) 96,60 %
Min-Datum _ 28.12.22 26.12.22 28.12.22 27.12.22 29.12.22 - 26.12.22 - - - - - 28.12.22 29.12.22 26.12.22 30.12.22
_ Min-Zeit 05:52 00:00 04:46 13:06 13:58 - 00:46 - - - - - 05:52 07:02 00:46 00:06
Minimum _ -2,4 C 3,9 C -5,6 C 67 % 1015,3 hPa - 0,0 km/h (0 Bft) - - - - - -2,9 C -4,4 C 0,0 km/h (0 Bft) 5,56 %
Max-Datum _ 01.01.23 27.12.22 01.01.23 26.12.22 27.12.22 26.12.22 26.12.22 - 28.12.22 27.12.22 01.01.23 28.12.22 01.01.23 01.01.23 27.12.22 26.12.22
_ Max-Zeit 13:56 20:10 13:18 00:00 09:52 19:06 20:16 - 11:58 12:00 11:14 10:52 14:18 13:56 00:24 01:34
Maximum _ 12,2 C 4,4 C 10,6 C 98 % 1030,0 hPa 1,0 l/m 26,3 km/h
SW (4 Bft)
- 0,13 h 0,153 mm 0,6 UV-I 342 W/m 8,8 C 12,2 C 45,1 km/h
W-SW (6 Bft)
100,00 %
Durchschnitt _ 3,5 C 4,0 C 2,1 C 92 % 1021,4 hPa #5,8 l/m 4,4 km/h (1 Bft) O-NO #27:25 h #3,784 mm 0,5 UV-I 114 W/m 2,4 C 2,8 C 6,9 km/h (2 Bft) 97,19 %